sensor_id;sensor_type;location;lat;lon;timestamp;temperature;humidity
20504;DHT22;10410;51.046;6.980;2023-05-14T00:00:38;11.60;99.90
20504;DHT22;10410;51.046;6.980;2023-05-14T00:07:38;11.40;99.90
20504;DHT22;10410;51.046;6.980;2023-05-14T00:14:39;11.20;99.90
20504;DHT22;10410;51.046;6.980;2023-05-14T00:21:39;11.10;99.90
20504;DHT22;10410;51.046;6.980;2023-05-14T00:28:39;11.10;99.90
20504;DHT22;10410;51.046;6.980;2023-05-14T00:35:40;10.90;99.90
20504;DHT22;10410;51.046;6.980;2023-05-14T00:42:40;10.90;99.90
20504;DHT22;10410;51.046;6.980;2023-05-14T00:49:41;10.70;99.90
20504;DHT22;10410;51.046;6.980;2023-05-14T00:56:44;10.60;99.90
20504;DHT22;10410;51.046;6.980;2023-05-14T01:03:44;10.40;99.90
20504;DHT22;10410;51.046;6.980;2023-05-14T01:10:53;10.40;99.90
20504;DHT22;10410;51.046;6.980;2023-05-14T01:18:07;10.30;99.90
20504;DHT22;10410;51.046;6.980;2023-05-14T01:25:07;10.20;99.90
20504;DHT22;10410;51.046;6.980;2023-05-14T01:32:08;10.10;99.90
20504;DHT22;10410;51.046;6.980;2023-05-14T01:39:10;10.10;99.90
20504;DHT22;10410;51.046;6.980;2023-05-14T01:46:11;10.00;99.90
20504;DHT22;10410;51.046;6.980;2023-05-14T01:53:11;9.90;99.90
20504;DHT22;10410;51.046;6.980;2023-05-14T02:00:12;9.80;99.90
20504;DHT22;10410;51.046;6.980;2023-05-14T02:07:15;9.80;99.90
20504;DHT22;10410;51.046;6.980;2023-05-14T02:14:16;9.70;99.90
20504;DHT22;10410;51.046;6.980;2023-05-14T02:21:16;9.70;99.90
20504;DHT22;10410;51.046;6.980;2023-05-14T02:28:17;9.70;99.90
20504;DHT22;10410;51.046;6.980;2023-05-14T02:35:17;9.70;99.90
20504;DHT22;10410;51.046;6.980;2023-05-14T02:42:18;9.70;99.90
20504;DHT22;10410;51.046;6.980;2023-05-14T02:49:19;9.60;99.90
20504;DHT22;10410;51.046;6.980;2023-05-14T02:56:19;9.60;99.90
20504;DHT22;10410;51.046;6.980;2023-05-14T03:03:20;9.50;99.90
20504;DHT22;10410;51.046;6.980;2023-05-14T03:10:21;9.40;99.90
20504;DHT22;10410;51.046;6.980;2023-05-14T03:17:22;9.20;99.90
20504;DHT22;10410;51.046;6.980;2023-05-14T03:24:23;9.10;99.90
20504;DHT22;10410;51.046;6.980;2023-05-14T03:31:23;9.00;99.90
20504;DHT22;10410;51.046;6.980;2023-05-14T03:38:23;9.10;99.90
20504;DHT22;10410;51.046;6.980;2023-05-14T03:45:24;9.00;99.90
20504;DHT22;10410;51.046;6.980;2023-05-14T03:52:24;9.00;99.90
20504;DHT22;10410;51.046;6.980;2023-05-14T03:59:24;9.00;99.90
20504;DHT22;10410;51.046;6.980;2023-05-14T04:06:26;8.90;99.90
20504;DHT22;10410;51.046;6.980;2023-05-14T04:13:27;8.80;99.90
20504;DHT22;10410;51.046;6.980;2023-05-14T04:20:27;8.80;99.90
20504;DHT22;10410;51.046;6.980;2023-05-14T04:27:28;8.80;99.90
20504;DHT22;10410;51.046;6.980;2023-05-14T04:34:28;8.80;99.90
20504;DHT22;10410;51.046;6.980;2023-05-14T04:41:29;8.80;99.90
20504;DHT22;10410;51.046;6.980;2023-05-14T04:48:29;8.90;99.90
20504;DHT22;10410;51.046;6.980;2023-05-14T04:55:30;8.90;99.90
20504;DHT22;10410;51.046;6.980;2023-05-14T05:02:30;9.00;99.90
20504;DHT22;10410;51.046;6.980;2023-05-14T05:09:31;9.10;99.90
20504;DHT22;10410;51.046;6.980;2023-05-14T05:16:31;9.20;99.90
20504;DHT22;10410;51.046;6.980;2023-05-14T05:23:32;9.40;99.90
20504;DHT22;10410;51.046;6.980;2023-05-14T05:30:32;9.60;99.90
20504;DHT22;10410;51.046;6.980;2023-05-14T05:37:33;9.80;99.90
20504;DHT22;10410;51.046;6.980;2023-05-14T05:44:33;10.00;99.90
20504;DHT22;10410;51.046;6.980;2023-05-14T05:51:33;10.20;99.90
20504;DHT22;10410;51.046;6.980;2023-05-14T05:58:34;10.50;99.90
20504;DHT22;10410;51.046;6.980;2023-05-14T06:05:34;10.70;99.90
20504;DHT22;10410;51.046;6.980;2023-05-14T06:12:35;10.80;99.90
20504;DHT22;10410;51.046;6.980;2023-05-14T06:19:36;11.00;99.90
20504;DHT22;10410;51.046;6.980;2023-05-14T06:26:36;11.10;99.90
20504;DHT22;10410;51.046;6.980;2023-05-14T06:33:37;11.40;99.90
20504;DHT22;10410;51.046;6.980;2023-05-14T06:40:38;11.60;99.90
20504;DHT22;10410;51.046;6.980;2023-05-14T06:47:38;11.90;99.90
20504;DHT22;10410;51.046;6.980;2023-05-14T06:54:39;12.20;99.90
20504;DHT22;10410;51.046;6.980;2023-05-14T07:01:39;12.60;99.90
20504;DHT22;10410;51.046;6.980;2023-05-14T07:08:40;12.90;99.90
20504;DHT22;10410;51.046;6.980;2023-05-14T07:15:41;13.20;99.90
20504;DHT22;10410;51.046;6.980;2023-05-14T07:22:41;13.50;99.90
20504;DHT22;10410;51.046;6.980;2023-05-14T07:29:42;13.80;99.90
20504;DHT22;10410;51.046;6.980;2023-05-14T07:36:42;14.10;99.90
20504;DHT22;10410;51.046;6.980;2023-05-14T07:43:43;14.30;99.90
20504;DHT22;10410;51.046;6.980;2023-05-14T07:50:43;14.50;99.90
20504;DHT22;10410;51.046;6.980;2023-05-14T07:57:44;14.60;99.90
20504;DHT22;10410;51.046;6.980;2023-05-14T08:04:45;14.80;99.90
20504;DHT22;10410;51.046;6.980;2023-05-14T08:11:45;14.90;99.90
20504;DHT22;10410;51.046;6.980;2023-05-14T08:18:46;15.20;99.90
20504;DHT22;10410;51.046;6.980;2023-05-14T08:25:46;15.60;99.90
20504;DHT22;10410;51.046;6.980;2023-05-14T08:32:47;15.80;99.90
20504;DHT22;10410;51.046;6.980;2023-05-14T08:39:48;16.00;99.90
20504;DHT22;10410;51.046;6.980;2023-05-14T08:46:48;16.20;99.90
20504;DHT22;10410;51.046;6.980;2023-05-14T08:53:50;16.40;99.90
20504;DHT22;10410;51.046;6.980;2023-05-14T09:00:51;16.70;99.90
20504;DHT22;10410;51.046;6.980;2023-05-14T09:07:52;16.90;99.90
20504;DHT22;10410;51.046;6.980;2023-05-14T09:14:53;17.20;99.90
20504;DHT22;10410;51.046;6.980;2023-05-14T09:21:57;17.40;99.90
20504;DHT22;10410;51.046;6.980;2023-05-14T09:28:58;17.60;99.90
20504;DHT22;10410;51.046;6.980;2023-05-14T09:36:02;17.70;99.90
20504;DHT22;10410;51.046;6.980;2023-05-14T09:43:03;17.90;99.90
20504;DHT22;10410;51.046;6.980;2023-05-14T09:50:04;18.10;99.90
20504;DHT22;10410;51.046;6.980;2023-05-14T09:57:05;18.30;99.90
20504;DHT22;10410;51.046;6.980;2023-05-14T10:04:06;18.60;99.90
20504;DHT22;10410;51.046;6.980;2023-05-14T10:11:18;18.90;99.90
20504;DHT22;10410;51.046;6.980;2023-05-14T10:18:25;19.10;99.90
20504;DHT22;10410;51.046;6.980;2023-05-14T10:25:26;19.10;99.90
20504;DHT22;10410;51.046;6.980;2023-05-14T10:32:26;19.40;99.90
20504;DHT22;10410;51.046;6.980;2023-05-14T10:46:40;19.90;99.90
20504;DHT22;10410;51.046;6.980;2023-05-14T10:53:41;20.30;99.90
20504;DHT22;10410;51.046;6.980;2023-05-14T11:00:46;20.20;99.90
20504;DHT22;10410;51.046;6.980;2023-05-14T11:07:49;20.20;99.90
20504;DHT22;10410;51.046;6.980;2023-05-14T11:14:50;20.10;99.90
20504;DHT22;10410;51.046;6.980;2023-05-14T11:21:50;20.10;99.90
20504;DHT22;10410;51.046;6.980;2023-05-14T11:28:51;20.10;99.90
20504;DHT22;10410;51.046;6.980;2023-05-14T11:35:52;20.20;99.90
20504;DHT22;10410;51.046;6.980;2023-05-14T11:42:52;20.50;99.90
20504;DHT22;10410;51.046;6.980;2023-05-14T11:49:53;21.00;99.90
20504;DHT22;10410;51.046;6.980;2023-05-14T11:56:55;21.30;99.90
20504;DHT22;10410;51.046;6.980;2023-05-14T12:03:55;21.60;99.90
20504;DHT22;10410;51.046;6.980;2023-05-14T12:10:59;21.50;99.90
20504;DHT22;10410;51.046;6.980;2023-05-14T12:18:00;21.30;99.90
20504;DHT22;10410;51.046;6.980;2023-05-14T12:25:02;21.40;99.90
20504;DHT22;10410;51.046;6.980;2023-05-14T12:32:05;21.30;99.90
20504;DHT22;10410;51.046;6.980;2023-05-14T12:39:08;21.60;96.30
20504;DHT22;10410;51.046;6.980;2023-05-14T12:46:09;21.90;95.50
20504;DHT22;10410;51.046;6.980;2023-05-14T12:53:10;22.50;95.40
20504;DHT22;10410;51.046;6.980;2023-05-14T13:00:10;23.00;91.80
20504;DHT22;10410;51.046;6.980;2023-05-14T13:07:14;23.30;85.80
20504;DHT22;10410;51.046;6.980;2023-05-14T13:14:14;23.60;86.70
20504;DHT22;10410;51.046;6.980;2023-05-14T13:21:15;23.70;82.20
20504;DHT22;10410;51.046;6.980;2023-05-14T13:28:15;24.00;82.60
20504;DHT22;10410;51.046;6.980;2023-05-14T13:35:15;24.50;81.80
20504;DHT22;10410;51.046;6.980;2023-05-14T13:42:16;24.70;70.40
20504;DHT22;10410;51.046;6.980;2023-05-14T13:49:16;24.30;71.20
20504;DHT22;10410;51.046;6.980;2023-05-14T13:56:17;24.40;75.50
20504;DHT22;10410;51.046;6.980;2023-05-14T14:03:17;24.60;73.70
20504;DHT22;10410;51.046;6.980;2023-05-14T14:10:17;24.30;72.60
20504;DHT22;10410;51.046;6.980;2023-05-14T14:17:18;23.80;74.30
20504;DHT22;10410;51.046;6.980;2023-05-14T14:24:18;23.70;72.00
20504;DHT22;10410;51.046;6.980;2023-05-14T14:31:19;23.90;73.30
20504;DHT22;10410;51.046;6.980;2023-05-14T14:38:20;24.70;70.90
20504;DHT22;10410;51.046;6.980;2023-05-14T14:45:20;25.70;69.80
20504;DHT22;10410;51.046;6.980;2023-05-14T14:52:20;25.90;71.40
20504;DHT22;10410;51.046;6.980;2023-05-14T14:59:21;25.50;70.70
20504;DHT22;10410;51.046;6.980;2023-05-14T15:06:21;25.40;70.00
20504;DHT22;10410;51.046;6.980;2023-05-14T15:13:22;25.50;68.70
20504;DHT22;10410;51.046;6.980;2023-05-14T15:20:23;25.30;65.00
20504;DHT22;10410;51.046;6.980;2023-05-14T15:27:23;25.20;67.30
20504;DHT22;10410;51.046;6.980;2023-05-14T15:34:24;25.40;66.50
20504;DHT22;10410;51.046;6.980;2023-05-14T15:41:25;25.10;65.20
20504;DHT22;10410;51.046;6.980;2023-05-14T15:48:27;24.50;67.40
20504;DHT22;10410;51.046;6.980;2023-05-14T15:55:28;24.00;67.90
20504;DHT22;10410;51.046;6.980;2023-05-14T16:02:29;24.00;69.00
20504;DHT22;10410;51.046;6.980;2023-05-14T16:09:29;23.90;67.70
20504;DHT22;10410;51.046;6.980;2023-05-14T16:16:30;23.70;67.40
20504;DHT22;10410;51.046;6.980;2023-05-14T16:23:30;23.60;69.10
20504;DHT22;10410;51.046;6.980;2023-05-14T16:30:31;23.40;67.10
20504;DHT22;10410;51.046;6.980;2023-05-14T16:37:31;23.20;69.10
20504;DHT22;10410;51.046;6.980;2023-05-14T16:44:31;23.10;70.20
20504;DHT22;10410;51.046;6.980;2023-05-14T16:51:32;23.00;68.80
20504;DHT22;10410;51.046;6.980;2023-05-14T16:58:32;22.90;70.60
20504;DHT22;10410;51.046;6.980;2023-05-14T17:05:33;22.90;69.80
20504;DHT22;10410;51.046;6.980;2023-05-14T17:12:34;22.80;69.70
20504;DHT22;10410;51.046;6.980;2023-05-14T17:19:34;22.60;71.30
20504;DHT22;10410;51.046;6.980;2023-05-14T17:26:35;22.50;72.40
20504;DHT22;10410;51.046;6.980;2023-05-14T17:33:36;22.30;72.90
20504;DHT22;10410;51.046;6.980;2023-05-14T17:40:37;22.20;73.60
20504;DHT22;10410;51.046;6.980;2023-05-14T17:47:39;22.10;74.80
20504;DHT22;10410;51.046;6.980;2023-05-14T17:54:39;22.00;75.90
20504;DHT22;10410;51.046;6.980;2023-05-14T18:01:40;21.90;77.00
20504;DHT22;10410;51.046;6.980;2023-05-14T18:08:40;21.70;78.00
20504;DHT22;10410;51.046;6.980;2023-05-14T18:15:40;21.50;79.10
20504;DHT22;10410;51.046;6.980;2023-05-14T18:22:41;21.40;80.10
20504;DHT22;10410;51.046;6.980;2023-05-14T18:29:41;21.20;81.00
20504;DHT22;10410;51.046;6.980;2023-05-14T18:36:42;20.90;81.90
20504;DHT22;10410;51.046;6.980;2023-05-14T18:43:42;20.70;82.70
20504;DHT22;10410;51.046;6.980;2023-05-14T18:50:43;20.50;83.40
20504;DHT22;10410;51.046;6.980;2023-05-14T18:57:43;20.40;84.30
20504;DHT22;10410;51.046;6.980;2023-05-14T19:04:44;20.20;84.90
20504;DHT22;10410;51.046;6.980;2023-05-14T19:11:51;20.10;85.80
20504;DHT22;10410;51.046;6.980;2023-05-14T19:18:52;19.90;87.20
20504;DHT22;10410;51.046;6.980;2023-05-14T19:25:52;19.60;88.20
20504;DHT22;10410;51.046;6.980;2023-05-14T19:32:53;19.40;89.00
20504;DHT22;10410;51.046;6.980;2023-05-14T19:39:54;19.20;89.70
20504;DHT22;10410;51.046;6.980;2023-05-14T19:46:54;19.10;90.10
20504;DHT22;10410;51.046;6.980;2023-05-14T19:53:54;19.00;90.80
20504;DHT22;10410;51.046;6.980;2023-05-14T20:00:55;19.00;90.80
20504;DHT22;10410;51.046;6.980;2023-05-14T20:07:56;18.90;91.00
20504;DHT22;10410;51.046;6.980;2023-05-14T20:14:57;18.80;91.40
20504;DHT22;10410;51.046;6.980;2023-05-14T20:21:57;18.80;91.70
20504;DHT22;10410;51.046;6.980;2023-05-14T20:28:57;18.70;91.90
20504;DHT22;10410;51.046;6.980;2023-05-14T20:35:58;18.60;92.20
20504;DHT22;10410;51.046;6.980;2023-05-14T20:42:58;18.60;92.40
20504;DHT22;10410;51.046;6.980;2023-05-14T20:49:59;18.50;92.60
20504;DHT22;10410;51.046;6.980;2023-05-14T20:57:00;18.40;93.00
20504;DHT22;10410;51.046;6.980;2023-05-14T21:04:00;18.20;93.40
20504;DHT22;10410;51.046;6.980;2023-05-14T21:11:01;18.10;93.70
20504;DHT22;10410;51.046;6.980;2023-05-14T21:18:02;18.00;94.10
20504;DHT22;10410;51.046;6.980;2023-05-14T21:25:02;17.90;94.40
20504;DHT22;10410;51.046;6.980;2023-05-14T21:32:03;17.80;94.80
20504;DHT22;10410;51.046;6.980;2023-05-14T21:39:04;17.70;95.30
20504;DHT22;10410;51.046;6.980;2023-05-14T21:46:04;17.60;95.80
20504;DHT22;10410;51.046;6.980;2023-05-14T21:53:05;17.50;96.20
20504;DHT22;10410;51.046;6.980;2023-05-14T22:00:05;17.40;96.70
20504;DHT22;10410;51.046;6.980;2023-05-14T22:07:12;17.30;97.20
20504;DHT22;10410;51.046;6.980;2023-05-14T22:14:12;17.20;97.80
20504;DHT22;10410;51.046;6.980;2023-05-14T22:21:12;17.10;98.40
20504;DHT22;10410;51.046;6.980;2023-05-14T22:28:13;17.00;99.00
20504;DHT22;10410;51.046;6.980;2023-05-14T22:35:13;16.90;99.70
20504;DHT22;10410;51.046;6.980;2023-05-14T22:42:14;16.60;99.90
20504;DHT22;10410;51.046;6.980;2023-05-14T22:49:14;16.50;99.90
20504;DHT22;10410;51.046;6.980;2023-05-14T22:56:14;16.30;99.90
20504;DHT22;10410;51.046;6.980;2023-05-14T23:03:15;16.10;99.90
20504;DHT22;10410;51.046;6.980;2023-05-14T23:10:15;15.90;99.90
20504;DHT22;10410;51.046;6.980;2023-05-14T23:17:16;15.70;99.90
20504;DHT22;10410;51.046;6.980;2023-05-14T23:24:16;15.50;99.90
20504;DHT22;10410;51.046;6.980;2023-05-14T23:31:17;15.30;99.90
20504;DHT22;10410;51.046;6.980;2023-05-14T23:38:17;15.10;99.90
20504;DHT22;10410;51.046;6.980;2023-05-14T23:45:18;15.00;99.90
20504;DHT22;10410;51.046;6.980;2023-05-14T23:52:18;14.80;99.90
20504;DHT22;10410;51.046;6.980;2023-05-14T23:59:18;14.60;99.90
